Flight Track Log - Related Links

Times and Time Zones

All times are in EDT time to prevent confusion due to time zone crossing. See the UAL33 flight status page for this flight to view local times or setup timezone preferences in your user account.

Time Position Orientation Groundspeed Altitude Reporting Facility
EDT Latitude Longitude Course Direction KTS MPH feet Rate Location/Type
Thu 04:33:25 AM 35.7450 140.3900 149° Southeast 160 184 1,100  Level FlightAware ADS-B
Thu 04:33:47 AM 35.7310 140.3990 152° Southeast 164 189 2,000 2,087 Climbing FlightAware ADS-B
Thu 04:34:11 AM 35.7150 140.4110 149° Southeast 171 197 2,700 1,773 Climbing FlightAware ADS-B
Thu 04:34:31 AM 35.7010 140.4210 150° Southeast 177 204 3,300 1,688 Climbing FlightAware ADS-B
Thu 04:34:43 AM 35.6920 140.4270 152° Southeast 184 212 3,600 1,125 Climbing FlightAware ADS-B
Thu 04:35:03 AM 35.6760 140.4390 149° Southeast 209 241 3,900 1,091 Climbing FlightAware ADS-B
Thu 04:35:27 AM 35.6540 140.4550 149° Southeast 239 275 4,400 1,333 Climbing FlightAware ADS-B
Thu 04:35:39 AM 35.6430 140.4630 149° Southeast 251 289 4,700 1,636 Climbing FlightAware ADS-B
Thu 04:36:00 AM 35.6220 140.4780 150° Southeast 271 312 5,300 2,100 Climbing FlightAware ADS-B
Thu 04:36:19 AM 35.6000 140.4940 149° Southeast 279 321 6,100 2,545 Climbing FlightAware ADS-B
Thu 04:36:33 AM 35.5840 140.5060 149° Southeast 281 323 6,700 2,684 Climbing FlightAware ADS-B
Thu 04:36:57 AM 35.5560 140.5260 150° Southeast 286 329 7,800 2,591 Climbing FlightAware ADS-B
Thu 04:37:17 AM 35.5360 140.5450 142° Southeast 287 330 8,600 2,143 Climbing FlightAware ADS-B
Thu 04:37:25 AM 35.5310 140.5560 119° Southeast 286 329 8,800 1,500 Climbing FlightAware ADS-B
Thu 04:37:33 AM 35.5280 140.5690 106° East 284 327 9,000 1,125 Climbing FlightAware ADS-B
Thu 04:37:41 AM 35.5260 140.5820 101° East 285 328 9,100 250 Climbing FlightAware ADS-B
Thu 04:37:57 AM 35.5250 140.6070 93° East 287 330 9,100  Level FlightAware ADS-B
Thu 04:38:21 AM 35.5220 140.6470 95° East 286 329 9,100  Level FlightAware ADS-B
Thu 04:38:41 AM 35.5200 140.6790 94° East 285 328 9,100  Level FlightAware ADS-B
Thu 04:39:01 AM 35.5180 140.7120 94° East 285 328 9,100 273 Level FlightAware ADS-B
Thu 04:39:25 AM 35.5160 140.7480 94° East 288 331 9,300 1,393 Climbing FlightAware ADS-B
Thu 04:39:57 AM 35.5120 140.8040 95° East 304 350 10,400 1,500 Climbing FlightAware ADS-B
Thu 04:40:33 AM 35.5080 140.8690 94° East 344 396 11,000 1,543 Climbing FlightAware ADS-B
Thu 04:41:07 AM 35.5030 140.9340 95° East 359 413 12,200 2,314 Climbing FlightAware ADS-B
Thu 04:41:43 AM 35.4980 141.0120 94° East 368 423 13,700 2,132 Climbing FlightAware ADS-B
Thu 04:42:23 AM 35.4920 141.0840 96° East 374 430 14,900 2,049 Climbing FlightAware ADS-B
Thu 04:43:05 AM 35.4700 141.1710 107° East 380 437 16,500 2,154 Climbing FlightAware ADS-B
Thu 04:43:41 AM 35.4470 141.2460 111° Southeast 390 449 17,700 1,938 Climbing FlightAware ADS-B
Thu 04:44:10 AM 35.4310 141.3090 107° East 398 458 18,600 1,875 Climbing FlightAware ADS-B
Thu 04:44:45 AM 35.4360 141.3820 85° East 399 459 19,700 1,853 Climbing FlightAware ADS-B
Thu 04:45:18 AM 35.4510 141.4570 76° East 405 466 20,700 1,652 Climbing FlightAware ADS-B
Thu 04:45:54 AM 35.4670 141.5370 76° East 418 481 21,600 1,565 Climbing FlightAware ADS-B
Thu 04:46:27 AM 35.4820 141.6170 77° East 426 490 22,500 1,662 Climbing FlightAware ADS-B
Thu 04:46:59 AM 35.4970 141.6950 77° East 433 498 23,400 1,676 Climbing FlightAware ADS-B
Thu 04:47:35 AM 35.5140 141.7850 77° East 441 507 24,400 1,519 Climbing FlightAware ADS-B
Thu 04:48:18 AM 35.5330 141.8840 77° East 448 516 25,400 1,315 Climbing FlightAware ADS-B
Thu 04:48:48 AM 35.5460 141.9510 77° East 454 522 26,000 1,364 Climbing FlightAware ADS-B
Thu 04:49:24 AM 35.5650 142.0520 77° East 462 532 26,900 1,333 Climbing FlightAware ADS-B
Thu 04:50:00 AM 35.5810 142.1360 77° East 467 537 27,600 1,500 Climbing FlightAware ADS-B
Thu 04:50:32 AM 35.6010 142.2420 77° East 472 543 28,600 1,612 Climbing FlightAware ADS-B
Thu 04:51:07 AM 35.6170 142.3330 78° East 477 549 29,400 1,200 Climbing FlightAware ADS-B
Thu 04:51:42 AM 35.6330 142.4160 77° East 482 555 30,000 1,114 Climbing FlightAware ADS-B
Thu 04:52:17 AM 35.6520 142.5180 77° East 488 562 30,700 711 Climbing FlightAware ADS-B
Thu 04:52:58 AM 35.6690 142.6130 78° East 490 564 30,900 1,120 Climbing FlightAware ADS-B
Thu 04:53:32 AM 35.6880 142.7160 77° East 497 572 32,100 1,000 Climbing FlightAware ADS-B
Thu 04:54:10 AM 35.7040 142.8050 77° East 497 572 32,100  Level FlightAware ADS-B
Thu 04:54:46 AM 35.7180 142.8900 79° East 497 572 32,100 1,397 Level FlightAware ADS-B
Thu 04:55:23 AM 35.7460 143.0350 77° East 514 592 33,800 1,859 Climbing FlightAware ADS-B
Thu 04:55:57 AM 35.7640 143.1360 78° East 519 597 34,300 1,031 Climbing FlightAware ADS-B
Thu 04:56:27 AM 35.7790 143.2190 77° East 517 595 34,900 1,286 Climbing FlightAware ADS-B
Thu 04:57:07 AM 35.8000 143.3360 77° East 512 589 35,800 1,200 Climbing FlightAware ADS-B
Thu 04:57:47 AM 35.8190 143.4420 78° East 508 585 36,500 1,050 Climbing FlightAware ADS-B
Thu 04:58:27 AM 35.8400 143.5630 78° East 505 581 37,200 706 Climbing FlightAware ADS-B
Thu 04:59:12 AM 35.8580 143.6670 78° East 504 580 37,500 505 Climbing FlightAware ADS-B
Thu 05:00:02 AM 35.8860 143.8300 78° East 502 578 38,000 333 Climbing FlightAware ADS-B
Thu 05:00:42 AM 35.9040 143.9370 78° East 502 578 38,000  Level FlightAware ADS-B
Thu 05:01:21 AM 35.9190 144.0300 79° East 502 578 38,000  Level FlightAware ADS-B
Thu 05:01:52 AM 35.9360 144.1370 79° East 503 579 38,000  Level FlightAware ADS-B
Thu 05:02:37 AM 35.9530 144.2330 78° East 503 579 38,000  Level FlightAware ADS-B
Thu 05:03:13 AM 35.9680 144.3190 78° East 503 579 38,000  Level FlightAware ADS-B
Thu 05:03:50 AM 35.9830 144.4080 78° East 503 579 38,000  Level FlightAware ADS-B
Thu 05:04:26 AM 35.9980 144.4940 78° East 503 579 38,000  Level FlightAware ADS-B
Thu 05:05:02 AM 36.0120 144.5800 79° East 503 579 38,000  Level FlightAware ADS-B
Thu 05:05:38 AM 36.0270 144.6660 78° East 503 579 38,000  Level FlightAware ADS-B
Thu 05:06:14 AM 36.0420 144.7520 78° East 503 579 38,000  Level FlightAware ADS-B
Thu 05:06:50 AM 36.0570 144.8380 78° East 503 579 38,000  Level FlightAware ADS-B
Thu 05:07:27 AM 36.0720 144.9270 78° East 503 579 38,000  Level FlightAware ADS-B
Thu 05:08:03 AM 36.0870 145.0130 78° East 503 579 38,000  Level FlightAware ADS-B
Thu 05:08:39 AM 36.1020 145.0990 78° East 503 579 38,000  Level FlightAware ADS-B
Thu 05:09:15 AM 36.1160 145.1850 79° East 503 579 38,000  Level FlightAware ADS-B
Thu 05:09:51 AM 36.1310 145.2720 78° East 503 579 38,000  Level FlightAware ADS-B
Thu 05:10:28 AM 36.1460 145.3600 78° East 503 579 38,000  Level FlightAware ADS-B
Thu 05:11:04 AM 36.1610 145.4470 78° East 503 579 38,000  Level FlightAware ADS-B
Thu 05:11:40 AM 36.1760 145.5330 78° East 503 579 38,000 Level FlightAware ADS-B
Thu 05:14:00 AM 36.3377 145.8636 59° Northeast  Level Estimated
Thu 05:15:00 AM 36.4068 146.0058 59° Northeast  Level Estimated
Thu 05:16:00 AM 36.4757 146.1482 59° Northeast  Level Estimated
Thu 05:17:00 AM 36.5444 146.2908 59° Northeast  Level Estimated
Thu 05:18:00 AM 36.6129 146.4337 59° Northeast  Level Estimated
Thu 05:19:00 AM 36.6813 146.5768 59° Northeast  Level Estimated
Thu 05:20:00 AM 36.7495 146.7202 59° Northeast  Level Estimated
Thu 05:21:00 AM 36.8175 146.8639 59° Northeast  Level Estimated
Thu 05:22:00 AM 36.8853 147.0078 59° Northeast  Level Estimated
Thu 05:23:00 AM 36.9530 147.1519 60° Northeast  Level Estimated
Thu 05:24:00 AM 37.0205 147.2964 60° Northeast  Level Estimated
Thu 05:25:00 AM 37.0878 147.4410 60° Northeast  Level Estimated
Thu 05:26:00 AM 37.1550 147.5860 60° Northeast  Level Estimated
Thu 05:27:00 AM 37.2220 147.7312 60° Northeast  Level Estimated
Thu 05:28:00 AM 37.2887 147.8766 60° Northeast  Level Estimated
Thu 05:29:00 AM 37.3554 148.0223 60° Northeast  Level Estimated
Thu 05:30:00 AM 37.4218 148.1683 60° Northeast  Level Estimated
Thu 05:31:00 AM 37.4881 148.3145 60° Northeast  Level Estimated
Thu 05:32:00 AM 37.5541 148.4610 60° Northeast  Level Estimated
Thu 05:33:00 AM 37.6200 148.6077 60° Northeast  Level Estimated
Thu 05:34:00 AM 37.6857 148.7547 61° Northeast  Level Estimated
Thu 05:35:00 AM 37.7513 148.9020 61° Northeast  Level Estimated
Thu 05:36:00 AM 37.8166 149.0495 61° Northeast  Level Estimated
Thu 05:37:00 AM 37.8818 149.1973 61° Northeast  Level Estimated
Thu 05:38:00 AM 37.9468 149.3453 61° Northeast  Level Estimated
Thu 05:39:00 AM 38.0116 149.4936 61° Northeast  Level Estimated
Thu 05:40:00 AM 38.0761 149.6422 61° Northeast  Level Estimated
Thu 05:41:00 AM 38.1406 149.7910 61° Northeast  Level Estimated
Thu 05:42:00 AM 38.2048 149.9401 61° Northeast  Level Estimated
Thu 05:43:00 AM 38.2688 150.0895 61° Northeast  Level Estimated
Thu 05:44:00 AM 38.3327 150.2391 61° Northeast  Level Estimated
Thu 05:45:00 AM 38.3964 150.3890 62° Northeast  Level Estimated
Thu 05:46:00 AM 38.4598 150.5391 62° Northeast  Level Estimated
Thu 05:47:00 AM 38.5231 150.6895 62° Northeast  Level Estimated
Thu 05:48:00 AM 38.5862 150.8402 62° Northeast  Level Estimated
Thu 05:49:00 AM 38.6491 150.9911 62° Northeast  Level Estimated
Thu 05:50:00 AM 38.7118 151.1423 62° Northeast  Level Estimated
Thu 05:51:00 AM 38.7743 151.2938 62° Northeast  Level Estimated
Thu 05:52:00 AM 38.8366 151.4455 62° Northeast  Level Estimated
Thu 05:53:00 AM 38.8987 151.5975 62° Northeast  Level Estimated
Thu 05:54:00 AM 38.9606 151.7498 62° Northeast  Level Estimated
Thu 05:55:00 AM 39.0223 151.9023 62° Northeast  Level Estimated
Thu 05:56:00 AM 39.0838 152.0551 63° Northeast  Level Estimated
Thu 05:57:00 AM 39.1451 152.2082 63° Northeast  Level Estimated
Thu 05:58:00 AM 39.2062 152.3615 63° Northeast  Level Estimated
Thu 05:59:00 AM 39.2672 152.5151 63° Northeast  Level Estimated
Thu 06:00:00 AM 39.3279 152.6690 63° Northeast  Level Estimated
Thu 06:01:00 AM 39.3884 152.8231 63° Northeast  Level Estimated
Thu 06:02:00 AM 39.4487 152.9775 63° Northeast  Level Estimated
Thu 06:03:00 AM 39.5088 153.1322 63° Northeast  Level Estimated
Thu 06:04:00 AM 39.5687 153.2871 63° Northeast  Level Estimated
Thu 06:05:00 AM 39.6385 153.4686 63° Northeast  Level Estimated
Thu 06:06:00 AM 39.7080 153.6506 64° Northeast  Level Estimated
Thu 06:07:00 AM 39.7772 153.8329 64° Northeast  Level Estimated
Thu 06:08:00 AM 39.8461 154.0155 64° Northeast  Level Estimated
Thu 06:09:00 AM 39.9148 154.1985 64° Northeast  Level Estimated
Thu 06:10:00 AM 39.9831 154.3819 64° Northeast  Level Estimated
Thu 06:11:00 AM 40.0512 154.5656 64° Northeast  Level Estimated
Thu 06:12:00 AM 40.1190 154.7498 64° Northeast  Level Estimated
Thu 06:13:00 AM 40.1865 154.9342 64° Northeast  Level Estimated
Thu 06:14:00 AM 40.2537 155.1191 64° Northeast  Level Estimated
Thu 06:15:00 AM 40.3206 155.3043 65° Northeast  Level Estimated
Thu 06:16:00 AM 40.3872 155.4899 65° Northeast  Level Estimated
Thu 06:17:00 AM 40.4535 155.6759 65° Northeast  Level Estimated
Thu 06:18:00 AM 40.5195 155.8622 65° Northeast  Level Estimated
Thu 06:19:00 AM 40.5852 156.0488 65° Northeast  Level Estimated
Thu 06:20:00 AM 40.6506 156.2359 65° Northeast  Level Estimated
Thu 06:21:00 AM 40.7157 156.4233 65° Northeast  Level Estimated
Thu 06:22:00 AM 40.7805 156.6111 65° Northeast  Level Estimated
Thu 06:23:00 AM 40.8450 156.7993 66° East  Level Estimated
Thu 06:24:00 AM 40.9092 156.9878 66° East  Level Estimated
Thu 06:25:00 AM 40.9731 157.1766 66° East  Level Estimated
Thu 06:26:00 AM 41.0367 157.3659 66° East  Level Estimated
Thu 06:27:00 AM 41.1000 157.5555 66° East  Level Estimated
Thu 06:28:00 AM 41.1629 157.7455 66° East  Level Estimated
Thu 06:29:00 AM 41.2256 157.9358 66° East  Level Estimated
Thu 06:30:00 AM 41.2879 158.1265 66° East  Level Estimated
Thu 06:31:00 AM 41.3499 158.3176 67° East  Level Estimated
Thu 06:32:00 AM 41.4116 158.5090 67° East  Level Estimated
Thu 06:33:00 AM 41.4730 158.7008 67° East  Level Estimated
Thu 06:34:00 AM 41.5340 158.8929 67° East  Level Estimated
Thu 06:35:00 AM 41.5857 159.0567 67° East  Level Estimated
Thu 06:36:00 AM 41.6372 159.2207 67° East  Level Estimated
Thu 06:37:00 AM 41.6884 159.3850 67° East  Level Estimated
Thu 06:38:00 AM 41.7394 159.5495 67° East  Level Estimated
Thu 06:39:00 AM 41.7901 159.7143 68° East  Level Estimated
Thu 06:40:00 AM 41.8407 159.8793 68° East  Level Estimated
Thu 06:41:00 AM 41.8909 160.0446 68° East  Level Estimated
Thu 06:42:00 AM 41.9410 160.2102 68° East  Level Estimated
Thu 06:43:00 AM 41.9908 160.3761 68° East  Level Estimated
Thu 06:44:00 AM 42.0404 160.5421 68° East  Level Estimated
Thu 06:45:00 AM 42.0897 160.7085 68° East  Level Estimated
Thu 06:46:00 AM 42.1388 160.8751 68° East  Level Estimated
Thu 06:47:00 AM 42.1876 161.0420 68° East  Level Estimated
Thu 06:48:00 AM 42.2362 161.2091 69° East  Level Estimated
Thu 06:49:00 AM 42.2846 161.3765 69° East  Level Estimated
Thu 06:50:00 AM 42.3327 161.5441 69° East  Level Estimated
Thu 06:51:00 AM 42.3806 161.7120 69° East  Level Estimated
Thu 06:52:00 AM 42.4282 161.8801 69° East  Level Estimated
Thu 06:53:00 AM 42.4756 162.0485 69° East  Level Estimated
Thu 06:54:00 AM 42.5227 162.2172 69° East  Level Estimated
Thu 06:55:00 AM 42.5696 162.3861 69° East  Level Estimated
Thu 06:56:00 AM 42.6162 162.5553 69° East  Level Estimated
Thu 06:57:00 AM 42.6626 162.7247 70° East  Level Estimated
Thu 06:58:00 AM 42.7088 162.8944 70° East  Level Estimated
Thu 06:59:00 AM 42.7547 163.0643 70° East  Level Estimated
Thu 07:00:00 AM 42.8003 163.2345 70° East  Level Estimated
Thu 07:01:00 AM 42.8457 163.4049 70° East  Level Estimated
Thu 07:02:00 AM 42.8908 163.5755 70° East  Level Estimated
Thu 07:03:00 AM 42.9357 163.7465 70° East  Level Estimated
Thu 07:04:00 AM 42.9803 163.9176 70° East  Level Estimated
Thu 07:05:00 AM 43.0247 164.0891 70° East  Level Estimated
Thu 07:06:00 AM 43.0688 164.2607 71° East  Level Estimated
Thu 07:07:00 AM 43.1127 164.4326 71° East  Level Estimated
Thu 07:08:00 AM 43.1562 164.6048 71° East  Level Estimated
Thu 07:09:00 AM 43.1996 164.7772 71° East  Level Estimated
Thu 07:10:00 AM 43.2427 164.9498 71° East  Level Estimated
Thu 07:11:00 AM 43.2855 165.1227 71° East  Level Estimated
Thu 07:12:00 AM 43.3280 165.2959 71° East  Level Estimated
Thu 07:13:00 AM 43.3703 165.4692 71° East  Level Estimated
Thu 07:13:33 AM 41.5833 164.8000 68° East 549 632 39,000  Level Oakland Oceanic (ODAPS)
Thu 07:14:00 AM 43.4124 165.6429 72° East  Level Estimated
Thu 07:14:49 AM 41.8833 165.8000 69° East 549 632 39,000  Level Oakland Oceanic (ODAPS)
Thu 07:15:00 AM 43.4541 165.8167 72° East  Level Estimated
Thu 07:16:00 AM 43.4956 165.9908 72° East  Level Estimated
Thu 07:17:00 AM 43.5369 166.1652 72° East  Level Estimated
Thu 07:18:00 AM 43.5779 166.3397 72° East  Level Estimated
Thu 07:19:00 AM 42.1353 166.6985 69° East 549 632 39,000  Level FlightAware Transoceanic
Thu 07:20:00 AM 42.1888 166.8902 69° East 549 632 39,000  Level FlightAware Transoceanic
Thu 07:21:00 AM 42.2179 166.9846 70° East 549 632 39,000  Level FlightAware Transoceanic
Thu 07:22:00 AM 42.2725 167.1833 70° East 549 632 39,000  Level FlightAware Transoceanic
Thu 07:23:00 AM 42.3268 167.3823 70° East 549 632 39,000  Level FlightAware Transoceanic
Thu 07:24:00 AM 42.3806 167.5816 70° East 549 632 39,000  Level FlightAware Transoceanic
Thu 07:24:47 AM 42.3333 167.4333 70° East 547 629 39,000  Level Oakland Oceanic (ODAPS)
Thu 07:25:00 AM 42.4342 167.7813 70° East 549 632 39,000  Level FlightAware Transoceanic
Thu 07:26:00 AM 42.4874 167.9813 70° East 549 632 39,000  Level FlightAware Transoceanic
Thu 07:27:00 AM 42.5402 168.1817 70° East 549 632 39,000  Level FlightAware Transoceanic
Thu 07:28:00 AM 42.5927 168.3824 71° East 549 632 39,000  Level FlightAware Transoceanic
Thu 07:29:00 AM 42.6449 168.5834 71° East 549 632 39,000  Level FlightAware Transoceanic
Thu 07:30:00 AM 42.6994 168.8085 71° East 547 629 39,000  Level FlightAware Transoceanic
Thu 07:31:00 AM 42.7504 169.0063 71° East 547 629 39,000  Level FlightAware Transoceanic
Thu 07:32:00 AM 42.8010 169.2044 71° East 547 629 39,000  Level FlightAware Transoceanic
Thu 07:33:00 AM 42.8513 169.4028 71° East 547 629 39,000  Level FlightAware Transoceanic
Thu 07:34:00 AM 42.9012 169.6016 71° East 547 629 39,000  Level FlightAware Transoceanic
Thu 07:35:00 AM 42.9508 169.8006 71° East 547 629 39,000  Level FlightAware Transoceanic
Thu 07:36:00 AM 43.0000 170.0000 71° East 547 629 39,000  Level FlightAware Transoceanic
Thu 07:37:00 AM 43.0504 170.2011 71° East 547 629 39,000  Level FlightAware Transoceanic
Thu 07:37:11 AM 43.0167 170.0833 71° East 533 613 39,000  Level Oakland Oceanic (ODAPS)
Thu 07:37:45 AM 43.0500 170.2000 71° East 559 643 39,000  Level Oakland Oceanic (ODAPS)
Thu 07:38:00 AM 43.1004 170.4026 71° East 547 629 39,000  Level FlightAware Transoceanic
Thu 07:39:00 AM 43.1501 170.6044 71° East 547 629 39,000  Level FlightAware Transoceanic
Thu 07:40:00 AM 43.1994 170.8065 72° East 547 629 39,000  Level FlightAware Transoceanic
Thu 07:41:00 AM 43.2483 171.0090 72° East 547 629 39,000  Level FlightAware Transoceanic
Thu 07:42:00 AM 43.2969 171.2117 72° East 547 629 39,000  Level FlightAware Transoceanic
Thu 07:42:00 AM 43.2500 170.9833 72° East 539 620 39,000  Level Oakland Oceanic (ODAPS)
Thu 07:43:00 AM 43.3107 171.2853 72° East 533 613 39,000  Level FlightAware Transoceanic
Thu 07:44:00 AM 43.3448 171.4138 72° East 559 643 39,000  Level FlightAware Transoceanic
Thu 07:45:00 AM 43.3927 171.6173 72° East 559 643 39,000  Level FlightAware Transoceanic
Thu 07:46:00 AM 43.4402 171.8210 72° East 559 643 39,000  Level FlightAware Transoceanic
Thu 07:47:00 AM 43.4874 172.0251 72° East 559 643 39,000  Level FlightAware Transoceanic
Thu 07:48:00 AM 43.5362 172.2083 73° East 539 620 39,000  Level FlightAware Transoceanic
Thu 07:49:00 AM 43.5826 172.4136 73° East 539 620 39,000  Level FlightAware Transoceanic
Thu 07:50:00 AM 43.6286 172.6192 73° East 539 620 39,000  Level FlightAware Transoceanic
Thu 07:51:00 AM 43.6743 172.8251 73° East 539 620 39,000  Level FlightAware Transoceanic
Thu 07:51:03 AM 43.6667 172.8000 73° East 547 629 39,000  Level Oakland Oceanic (ODAPS)
Thu 07:52:00 AM 43.7196 173.0313 73° East 539 620 39,000  Level FlightAware Transoceanic
Thu 07:52:23 AM 43.7167 173.0667 73° East 551 634 39,000  Level Oakland Oceanic (ODAPS)
Thu 07:53:00 AM 43.7646 173.2378 73° East 539 620 39,000  Level FlightAware Transoceanic
Thu 07:54:00 AM 43.8091 173.4447 73° East 539 620 39,000  Level FlightAware Transoceanic
Thu 07:55:00 AM 43.8533 173.6518 74° East 539 620 39,000  Level FlightAware Transoceanic
Thu 07:55:02 AM 43.8333 173.6000 73° East 556 640 39,000  Level Oakland Oceanic (ODAPS)
Thu 07:56:00 AM 43.8971 173.8593 74° East 539 620 39,000  Level FlightAware Transoceanic
Thu 07:57:00 AM 43.9345 174.0461 74° East 547 629 39,000  Level FlightAware Transoceanic
Thu 07:58:00 AM 43.9809 174.3041 74° East 551 634 39,000  Level FlightAware Transoceanic
Thu 07:59:00 AM 44.0237 174.5114 74° East 551 634 39,000  Level FlightAware Transoceanic
Thu 08:00:00 AM 44.0660 174.7190 74° East 551 634 39,000  Level FlightAware Transoceanic
Thu 08:00:22 AM 44.0667 174.6833 74° East 556 640 39,000  Level Oakland Oceanic (ODAPS)
Thu 08:00:59 AM 44.1000 174.8333 74° East 548 631 39,000  Level Oakland Oceanic (ODAPS)
Thu 08:01:00 AM 44.0950 174.8591 74° East 556 640 39,000  Level FlightAware Transoceanic
Thu 08:02:00 AM 44.1373 175.0700 74° East 556 640 39,000  Level FlightAware Transoceanic
Thu 08:03:00 AM 44.1792 175.2812 75° East 556 640 39,000  Level FlightAware Transoceanic
Thu 08:04:00 AM 44.2207 175.4928 75° East 556 640 39,000  Level FlightAware Transoceanic
Thu 08:05:00 AM 44.2618 175.7046 75° East 556 640 39,000  Level FlightAware Transoceanic
Thu 08:06:00 AM 44.3038 175.8949 75° East 556 640 39,000  Level FlightAware Transoceanic
Thu 08:06:48 AM 44.3167 176.0167 75° East 554 638 39,000  Level Oakland Oceanic (ODAPS)
Thu 08:06:58 AM 44.3333 176.0500 75° East 555 639 39,000  Level Oakland Oceanic (ODAPS)
Thu 08:07:00 AM 44.3371 176.0585 75° East 548 631 39,000  Level FlightAware Transoceanic
Thu 08:08:00 AM 44.3754 176.2637 75° East 548 631 39,000  Level FlightAware Transoceanic
Thu 08:09:00 AM 44.4132 176.4691 76° East 548 631 39,000  Level FlightAware Transoceanic
Thu 08:10:00 AM 44.4508 176.6747 76° East 548 631 39,000  Level FlightAware Transoceanic
Thu 08:11:00 AM 44.4879 176.8807 76° East 548 631 39,000  Level FlightAware Transoceanic
Thu 08:12:00 AM 44.5247 177.0869 76° East 548 631 39,000  Level FlightAware Transoceanic
Thu 08:13:00 AM 44.5585 177.2874 76° East 555 639 39,000  Level FlightAware Transoceanic
Thu 08:14:00 AM 44.5948 177.4946 76° East 555 639 39,000  Level FlightAware Transoceanic
Thu 08:15:00 AM 44.6306 177.7020 76° East 555 639 39,000  Level FlightAware Transoceanic
Thu 08:16:00 AM 44.6661 177.9097 77° East 555 639 39,000  Level FlightAware Transoceanic
Thu 08:17:00 AM 44.7012 178.1176 77° East 555 639 39,000  Level FlightAware Transoceanic
Thu 08:18:00 AM 44.7359 178.3258 77° East 555 639 39,000  Level FlightAware Transoceanic
Thu 08:19:00 AM 44.7703 178.5342 77° East 555 639 39,000  Level FlightAware Transoceanic
Thu 08:20:00 AM 44.8042 178.7429 77° East 555 639 39,000  Level FlightAware Transoceanic
Thu 08:20:41 AM 44.8500 178.9833 78° East 576 663 39,000  Level Oakland Oceanic (ODAPS)
Thu 08:21:00 AM 44.8378 178.9518 77° East 555 639 39,000  Level FlightAware Transoceanic
Thu 08:22:00 AM 44.8710 179.1610 77° East 555 639 39,000  Level FlightAware Transoceanic
Thu 08:23:00 AM 44.9038 179.3704 78° East 555 639 39,000  Level FlightAware Transoceanic
Thu 08:24:00 AM 44.9363 179.5800 78° East 555 639 39,000  Level FlightAware Transoceanic
Thu 08:25:00 AM 44.9683 179.7899 78° East 555 639 39,000  Level FlightAware Transoceanic
Thu 08:25:19 AM 45.0000 180.0000 70° East 576 663 39,000  Level Oakland Oceanic (ODAPS)
Thu 08:26:00 AM 45.0000 -180.0000 70° East 576 663 39,000  Level FlightAware Transoceanic
Thu 08:27:00 AM 45.0537 -179.7860 71° East 576 663 39,000  Level FlightAware Transoceanic
Thu 08:28:00 AM 45.1070 -179.5716 71° East 576 663 39,000  Level FlightAware Transoceanic
Thu 08:29:00 AM 45.1599 -179.3568 71° East 576 663 39,000  Level FlightAware Transoceanic
Thu 08:30:00 AM 45.2124 -179.1416 71° East 576 663 39,000  Level FlightAware Transoceanic
Thu 08:31:00 AM 45.3162 -178.7099 71° East 576 663 39,000  Level FlightAware Transoceanic
Thu 08:32:00 AM 45.3675 -178.4936 71° East 576 663 39,000  Level FlightAware Transoceanic
Thu 08:33:00 AM 45.4184 -178.2768 72° East 576 663 39,000  Level FlightAware Transoceanic
Thu 08:34:00 AM 45.4688 -178.0596 72° East 576 663 39,000  Level FlightAware Transoceanic
Thu 08:34:33 AM 45.4833 -177.9833 72° East 586 674 39,000  Level Oakland Oceanic (ODAPS)
Thu 08:35:00 AM 45.5189 -177.8420 72° East 576 663 39,000  Level FlightAware Transoceanic
Thu 08:36:00 AM 45.5685 -177.6241 72° East 576 663 39,000  Level FlightAware Transoceanic
Thu 08:37:00 AM 45.6177 -177.4058 72° East 576 663 39,000  Level FlightAware Transoceanic
Thu 08:38:00 AM 45.6665 -177.1870 72° East 576 663 39,000  Level FlightAware Transoceanic
Thu 08:39:00 AM 45.7149 -176.9680 73° East 576 663 39,000  Level FlightAware Transoceanic
Thu 08:40:00 AM 45.7743 -176.6843 73° East 586 674 39,000  Level FlightAware Transoceanic
Thu 08:41:00 AM 45.8213 -176.4665 73° East 586 674 39,000  Level FlightAware Transoceanic
Thu 08:42:00 AM 45.8679 -176.2484 73° East 586 674 39,000  Level FlightAware Transoceanic
Thu 08:43:00 AM 45.9141 -176.0298 73° East 586 674 39,000  Level FlightAware Transoceanic
Thu 08:44:00 AM 45.9599 -175.8109 73° East 586 674 39,000  Level FlightAware Transoceanic
Thu 08:45:00 AM 46.0053 -175.5916 73° East 586 674 39,000  Level FlightAware Transoceanic
Thu 08:46:00 AM 46.0503 -175.3720 74° East 586 674 39,000  Level FlightAware Transoceanic
Thu 08:47:00 AM 46.0948 -175.1521 74° East 586 674 39,000  Level FlightAware Transoceanic
Thu 08:48:00 AM 46.1390 -174.9317 74° East 586 674 39,000  Level FlightAware Transoceanic
Thu 08:48:24 AM 46.1500 -174.8667 74° East 595 685 39,000  Level Oakland Oceanic (ODAPS)
Thu 08:49:00 AM 46.1826 -174.7111 74° East 586 674 39,000  Level FlightAware Transoceanic
Thu 08:50:00 AM 46.2259 -174.4900 74° East 586 674 39,000  Level FlightAware Transoceanic
Thu 08:51:00 AM 46.2687 -174.2686 74° East 586 674 39,000  Level FlightAware Transoceanic
Thu 08:52:00 AM 46.3112 -174.0469 75° East 586 674 39,000  Level FlightAware Transoceanic
Thu 08:53:00 AM 46.3531 -173.8249 75° East 586 674 39,000  Level FlightAware Transoceanic
Thu 08:54:00 AM 46.4138 -173.4920 75° East 595 685 39,000  Level FlightAware Transoceanic
Thu 08:55:00 AM 46.4562 -173.2616 75° East 595 685 39,000  Level FlightAware Transoceanic
Thu 08:56:00 AM 46.4981 -173.0308 75° East 595 685 39,000  Level FlightAware Transoceanic
Thu 08:57:00 AM 46.5395 -172.7997 75° East 595 685 39,000  Level FlightAware Transoceanic
Thu 08:58:00 AM 46.5805 -172.5683 76° East 595 685 39,000  Level FlightAware Transoceanic
Thu 08:59:00 AM 46.6210 -172.3365 76° East 595 685 39,000  Level FlightAware Transoceanic
Thu 09:00:00 AM 46.6610 -172.1043 76° East 595 685 39,000  Level FlightAware Transoceanic
Thu 09:01:00 AM 46.7006 -171.8718 76° East 595 685 39,000  Level FlightAware Transoceanic
Thu 09:02:00 AM 46.7397 -171.6390 76° East 595 685 39,000  Level FlightAware Transoceanic
Thu 09:02:16 AM 46.7333 -171.6500 76° East 587 676 39,000  Level Oakland Oceanic (ODAPS)
Thu 09:03:00 AM 46.7783 -171.4059 76° East 595 685 39,000  Level FlightAware Transoceanic
Thu 09:04:00 AM 46.8164 -171.1723 77° East 595 685 39,000  Level FlightAware Transoceanic
Thu 09:05:00 AM 46.8541 -170.9385 77° East 595 685 39,000  Level FlightAware Transoceanic
Thu 09:06:00 AM 46.8913 -170.7044 77° East 595 685 39,000  Level FlightAware Transoceanic
Thu 09:07:00 AM 46.9280 -170.4699 77° East 595 685 39,000  Level FlightAware Transoceanic
Thu 09:08:00 AM 46.9634 -170.2367 77° East 587 676 39,000  Level FlightAware Transoceanic
Thu 09:09:00 AM 47.0000 -170.0000 78° East 587 676 39,000  Level FlightAware Transoceanic
Thu 09:09:28 AM 47.0000 -170.0000 78° East 580 667 39,000  Level Oakland Oceanic (ODAPS)
Thu 09:10:00 AM 47.0330 -169.7723 78° East 587 676 39,000  Level FlightAware Transoceanic
Thu 09:11:00 AM 47.0656 -169.5443 78° East 587 676 39,000  Level FlightAware Transoceanic
Thu 09:12:00 AM 47.0977 -169.3161 78° East 587 676 39,000  Level FlightAware Transoceanic
Thu 09:13:00 AM 47.1293 -169.0876 79° East 587 676 39,000  Level FlightAware Transoceanic
Thu 09:14:00 AM 47.1605 -168.8588 79° East 587 676 39,000  Level FlightAware Transoceanic
Thu 09:15:00 AM 47.1913 -168.6297 79° East 580 667 39,000  Level FlightAware Transoceanic
Thu 09:16:00 AM 47.2216 -168.4004 79° East 580 667 39,000  Level FlightAware Transoceanic
Thu 09:16:08 AM 47.2167 -168.4500 79° East 577 664 39,000  Level Oakland Oceanic (ODAPS)
Thu 09:17:00 AM 47.2514 -168.1708 79° East 580 667 39,000  Level FlightAware Transoceanic
Thu 09:18:00 AM 47.2808 -167.9410 79° East 580 667 39,000  Level FlightAware Transoceanic
Thu 09:19:00 AM 47.3097 -167.7109 80° East 580 667 39,000  Level FlightAware Transoceanic
Thu 09:20:00 AM 47.3381 -167.4805 80° East 580 667 39,000  Level FlightAware Transoceanic
Thu 09:21:00 AM 47.3661 -167.2499 80° East 580 667 39,000  Level FlightAware Transoceanic
Thu 09:22:00 AM 47.3900 -167.0607 80° East 577 664 39,000  Level FlightAware Transoceanic
Thu 09:23:00 AM 47.4173 -166.8283 80° East 577 664 39,000  Level FlightAware Transoceanic
Thu 09:24:00 AM 47.4441 -166.5956 80° East 577 664 39,000  Level FlightAware Transoceanic
Thu 09:25:00 AM 47.4704 -166.3627 81° East 577 664 39,000  Level FlightAware Transoceanic
Thu 09:26:00 AM 47.4963 -166.1296 81° East 577 664 39,000  Level FlightAware Transoceanic
Thu 09:27:00 AM 47.5216 -165.8962 81° East 577 664 39,000  Level FlightAware Transoceanic
Thu 09:28:00 AM 47.5466 -165.6626 81° East 577 664 39,000  Level FlightAware Transoceanic
Thu 09:29:00 AM 47.5710 -165.4288 81° East 577 664 39,000  Level FlightAware Transoceanic
Thu 09:30:00 AM 47.5949 -165.1948 81° East 577 664 39,000  Level FlightAware Transoceanic
Thu 09:30:02 AM 47.5833 -165.3333 81° East 564 649 39,000  Level Oakland Oceanic (ODAPS)
Thu 09:31:00 AM 47.6184 -164.9606 82° East 577 664 39,000  Level FlightAware Transoceanic
Thu 09:32:00 AM 47.6414 -164.7262 82° East 577 664 39,000  Level FlightAware Transoceanic
Thu 09:33:00 AM 47.6639 -164.4915 82° East 577 664 39,000  Level FlightAware Transoceanic
Thu 09:34:00 AM 47.6860 -164.2567 82° East 577 664 39,000  Level FlightAware Transoceanic
Thu 09:35:00 AM 47.7075 -164.0217 82° East 577 664 39,000  Level FlightAware Transoceanic
Thu 09:36:00 AM 47.7158 -163.9507 82° East 564 649 39,000  Level FlightAware Transoceanic
Thu 09:37:00 AM 47.7363 -163.7195 83° East 564 649 39,000  Level FlightAware Transoceanic
Thu 09:38:00 AM 47.7562 -163.4882 83° East 564 649 39,000  Level FlightAware Transoceanic
Thu 09:39:00 AM 47.7758 -163.2568 83° East 564 649 39,000  Level FlightAware Transoceanic
Thu 09:40:00 AM 47.7948 -163.0251 83° East 564 649 39,000  Level FlightAware Transoceanic
Thu 09:41:00 AM 47.8134 -162.7933 83° East 564 649 39,000  Level FlightAware Transoceanic
Thu 09:42:00 AM 47.8316 -162.5614 83° East 564 649 39,000  Level FlightAware Transoceanic
Thu 09:43:00 AM 47.8492 -162.3292 84° East 564 649 39,000  Level FlightAware Transoceanic
Thu 09:43:53 AM 47.8667 -162.1667 84° East 563 648 39,000  Level Oakland Oceanic (ODAPS)
Thu 09:44:00 AM 47.8664 -162.0969 84° East 564 649 39,000  Level FlightAware Transoceanic
Thu 09:45:00 AM 47.8831 -161.8645 84° East 564 649 39,000  Level FlightAware Transoceanic
Thu 09:46:00 AM 47.8994 -161.6319 84° East 564 649 39,000  Level FlightAware Transoceanic
Thu 09:47:00 AM 47.9152 -161.3992 84° East 564 649 39,000  Level FlightAware Transoceanic
Thu 09:48:00 AM 47.9305 -161.1663 84° East 564 649 39,000  Level FlightAware Transoceanic
Thu 09:49:00 AM 47.9453 -160.9333 85° East 564 649 39,000  Level FlightAware Transoceanic
Thu 09:50:00 AM 47.9601 -160.7234 85° East 563 648 39,000  Level FlightAware Transoceanic
Thu 09:51:00 AM 47.9739 -160.4824 85° East 563 648 39,000  Level FlightAware Transoceanic
Thu 09:52:00 AM 47.9872 -160.2413 85° East 563 648 39,000  Level FlightAware Transoceanic
Thu 09:53:00 AM 48.0000 -160.0000 103° East 563 648 39,000  Level FlightAware Transoceanic
Thu 09:53:20 AM 48.0000 -160.0000 103° East 554 638 39,000  Level Oakland Oceanic (ODAPS)
Thu 09:54:00 AM 47.9660 -159.7750 103° East 563 648 39,000  Level FlightAware Transoceanic
Thu 09:55:00 AM 47.9315 -159.5504 103° East 563 648 39,000  Level FlightAware Transoceanic
Thu 09:56:00 AM 47.8967 -159.3260 103° East 563 648 39,000  Level FlightAware Transoceanic
Thu 09:57:00 AM 47.8613 -159.1019 103° East 563 648 39,000  Level FlightAware Transoceanic
Thu 09:57:45 AM 47.8500 -159.0000 103° East 556 640 39,000  Level Oakland Oceanic (ODAPS)
Thu 09:58:00 AM 47.8256 -158.8782 103° East 563 648 39,000  Level FlightAware Transoceanic
Thu 09:59:00 AM 47.7894 -158.6547 104° East 554 638 39,000  Level FlightAware Transoceanic
Thu 10:00:00 AM 47.7528 -158.4316 104° East 554 638 39,000  Level FlightAware Transoceanic
Thu 10:01:00 AM 47.7157 -158.2088 104° East 554 638 39,000  Level FlightAware Transoceanic
Thu 10:02:00 AM 47.6782 -157.9863 104° East 554 638 39,000  Level FlightAware Transoceanic
Thu 10:03:00 AM 47.6403 -157.7641 104° East 554 638 39,000  Level FlightAware Transoceanic
Thu 10:04:00 AM 47.6240 -157.6452 104° East 556 640 39,000  Level FlightAware Transoceanic
Thu 10:05:00 AM 47.5848 -157.4206 105° East 556 640 39,000  Level FlightAware Transoceanic
Thu 10:06:00 AM 47.5452 -157.1963 105° East 556 640 39,000  Level FlightAware Transoceanic
Thu 10:07:00 AM 47.5051 -156.9723 105° East 556 640 39,000  Level FlightAware Transoceanic
Thu 10:08:00 AM 47.4646 -156.7487 105° East 556 640 39,000  Level FlightAware Transoceanic
Thu 10:09:00 AM 47.4236 -156.5254 105° East 556 640 39,000  Level FlightAware Transoceanic
Thu 10:10:00 AM 47.3823 -156.3025 105° East 556 640 39,000  Level FlightAware Transoceanic
Thu 10:11:00 AM 47.3404 -156.0800 106° East 556 640 39,000 619 Level FlightAware Transoceanic
Thu 10:11:37 AM 47.3167 -155.9500 106° East 557 641 40,000  Climbing Oakland Oceanic (ODAPS)
Thu 10:12:00 AM 47.2982 -155.8577 106° East 556 640 39,000 -723 Descending FlightAware Transoceanic
Thu 10:13:00 AM 47.2555 -155.6359 106° East 556 640 39,000  Level FlightAware Transoceanic
Thu 10:14:00 AM 47.2124 -155.4144 106° East 556 640 39,000  Level FlightAware Transoceanic
Thu 10:15:00 AM 47.1689 -155.1932 106° East 556 640 39,000  Level FlightAware Transoceanic
Thu 10:16:00 AM 47.1249 -154.9725 106° East 556 640 39,000 500 Level FlightAware Transoceanic
Thu 10:17:00 AM 47.0607 -154.6509 107° East 557 641 40,000 500 Climbing FlightAware Transoceanic
Thu 10:18:00 AM 47.0167 -154.4356 107° East 557 641 40,000  Level FlightAware Transoceanic
Thu 10:19:00 AM 46.9722 -154.2207 107° East 557 641 40,000  Level FlightAware Transoceanic
Thu 10:20:00 AM 46.9273 -154.0061 107° East 557 641 40,000  Level FlightAware Transoceanic
Thu 10:21:00 AM 46.8820 -153.7919 107° East 557 641 40,000  Level FlightAware Transoceanic
Thu 10:22:00 AM 46.8363 -153.5781 107° East 557 641 40,000  Level FlightAware Transoceanic
Thu 10:23:00 AM 46.7902 -153.3646 108° East 557 641 40,000  Level FlightAware Transoceanic
Thu 10:24:00 AM 46.7438 -153.1515 108° East 557 641 40,000  Level FlightAware Transoceanic
Thu 10:25:00 AM 46.6969 -152.9387 108° East 557 641 40,000  Level FlightAware Transoceanic
Thu 10:25:29 AM 46.7000 -152.9500 108° East 553 636 40,000  Level Oakland Oceanic (ODAPS)
Thu 10:26:00 AM 46.6496 -152.7264 108° East 557 641 40,000  Level FlightAware Transoceanic
Thu 10:27:00 AM 46.6020 -152.5144 108° East 557 641 40,000  Level FlightAware Transoceanic
Thu 10:28:00 AM 46.5539 -152.3027 108° East 557 641 40,000  Level FlightAware Transoceanic
Thu 10:29:00 AM 46.5055 -152.0915 109° East 557 641 40,000  Level FlightAware Transoceanic
Thu 10:30:00 AM 46.4567 -151.8806 109° East 557 641 40,000  Level FlightAware Transoceanic
Thu 10:31:00 AM 46.4093 -151.6765 109° East 553 636 40,000  Level FlightAware Transoceanic
Thu 10:32:00 AM 46.3595 -151.4655 109° East 553 636 40,000  Level FlightAware Transoceanic
Thu 10:33:00 AM 46.3093 -151.2550 109° East 553 636 40,000  Level FlightAware Transoceanic
Thu 10:34:00 AM 46.2587 -151.0449 109° East 553 636 40,000  Level FlightAware Transoceanic
Thu 10:35:00 AM 46.2077 -150.8351 109° East 553 636 40,000  Level FlightAware Transoceanic
Thu 10:36:00 AM 46.1564 -150.6257 110° East 553 636 40,000  Level FlightAware Transoceanic
Thu 10:37:00 AM 46.1046 -150.4168 110° East 553 636 40,000  Level FlightAware Transoceanic
Thu 10:38:00 AM 46.0525 -150.2082 110° East 553 636 40,000  Level FlightAware Transoceanic
Thu 10:39:00 AM 46.0000 -150.0000 109° East 553 636 40,000  Level FlightAware Transoceanic
Thu 10:39:20 AM 46.0000 -150.0000 109° East 471 542 40,000  Level Oakland Oceanic (ODAPS)
Thu 10:39:32 AM 46.0000 -150.0000 109° East 551 634 40,000  Level Oakland Oceanic (ODAPS)
Thu 10:40:00 AM 45.9518 -149.8019 109° East 553 636 40,000  Level FlightAware Transoceanic
Thu 10:41:00 AM 45.9031 -149.6042 110° East 553 636 40,000  Level FlightAware Transoceanic
Thu 10:42:00 AM 45.8542 -149.4068 110° East 553 636 40,000  Level FlightAware Transoceanic
Thu 10:43:00 AM 45.8049 -149.2098 110° East 553 636 40,000  Level FlightAware Transoceanic
Thu 10:44:00 AM 45.7553 -149.0131 110° East 553 636 40,000  Level FlightAware Transoceanic
Thu 10:45:00 AM 45.6936 -148.7707 110° East 551 634 40,000  Level FlightAware Transoceanic
Thu 10:46:00 AM 45.6412 -148.5671 110° East 551 634 40,000  Level FlightAware Transoceanic
Thu 10:47:00 AM 45.5885 -148.3639 110° East 551 634 40,000  Level FlightAware Transoceanic
Thu 10:48:00 AM 45.5354 -148.1611 111° Southeast 551 634 40,000  Level FlightAware Transoceanic
Thu 10:49:00 AM 45.4820 -147.9587 111° Southeast 551 634 40,000  Level FlightAware Transoceanic
Thu 10:50:00 AM 45.4282 -147.7567 111° Southeast 551 634 40,000  Level FlightAware Transoceanic
Thu 10:51:00 AM 45.3741 -147.5550 111° Southeast 551 634 40,000  Level FlightAware Transoceanic
Thu 10:52:00 AM 45.3196 -147.3537 111° Southeast 551 634 40,000  Level FlightAware Transoceanic
Thu 10:53:00 AM 45.2648 -147.1529 111° Southeast 551 634 40,000  Level FlightAware Transoceanic
Thu 10:53:12 AM 45.2667 -147.1500 111° Southeast 557 641 40,000  Level Oakland Oceanic (ODAPS)
Thu 10:54:00 AM 45.2096 -146.9524 111° Southeast 551 634 40,000  Level FlightAware Transoceanic
Thu 10:55:00 AM 45.1540 -146.7523 112° Southeast 551 634 40,000  Level FlightAware Transoceanic
Thu 10:56:00 AM 45.0981 -146.5526 112° Southeast 551 634 40,000  Level FlightAware Transoceanic
Thu 10:57:00 AM 45.0419 -146.3533 112° Southeast 551 634 40,000  Level FlightAware Transoceanic
Thu 10:58:00 AM 44.9853 -146.1544 112° Southeast 551 634 40,000  Level FlightAware Transoceanic
Thu 10:59:00 AM 44.9204 -145.9204 112° Southeast 557 641 40,000  Level FlightAware Transoceanic
Thu 11:00:00 AM 44.8614 -145.7169 112° Southeast 557 641 40,000  Level FlightAware Transoceanic
Thu 11:01:00 AM 44.8021 -145.5138 112° Southeast 557 641 40,000  Level FlightAware Transoceanic
Thu 11:02:00 AM 44.7424 -145.3112 113° Southeast 557 641 40,000  Level FlightAware Transoceanic
Thu 11:03:00 AM 44.6823 -145.1089 113° Southeast 557 641 40,000  Level FlightAware Transoceanic
Thu 11:04:00 AM 44.6219 -144.9071 113° Southeast 557 641 40,000  Level FlightAware Transoceanic
Thu 11:05:00 AM 44.5611 -144.7057 113° Southeast 557 641 40,000  Level FlightAware Transoceanic
Thu 11:06:00 AM 44.5000 -144.5048 113° Southeast 557 641 40,000  Level FlightAware Transoceanic
Thu 11:07:00 AM 44.4385 -144.3042 113° Southeast 557 641 40,000  Level FlightAware Transoceanic
Thu 11:07:04 AM 44.4667 -144.4000 113° Southeast 539 620 40,000  Level Oakland Oceanic (ODAPS)
Thu 11:08:00 AM 44.3767 -144.1041 113° Southeast 557 641 40,000  Level FlightAware Transoceanic
Thu 11:09:00 AM 44.3145 -143.9044 114° Southeast 557 641 40,000  Level FlightAware Transoceanic
Thu 11:10:00 AM 44.2520 -143.7051 114° Southeast 557 641 40,000  Level FlightAware Transoceanic
Thu 11:11:00 AM 44.1891 -143.5063 114° Southeast 557 641 40,000  Level FlightAware Transoceanic
Thu 11:12:00 AM 44.1259 -143.3079 114° Southeast 557 641 40,000  Level FlightAware Transoceanic
Thu 11:13:00 AM 44.1005 -143.2314 114° Southeast 539 620 40,000  Level FlightAware Transoceanic
Thu 11:14:00 AM 44.0383 -143.0381 114° Southeast 539 620 40,000  Level FlightAware Transoceanic
Thu 11:15:00 AM 43.9758 -142.8451 114° Southeast 539 620 40,000  Level FlightAware Transoceanic
Thu 11:16:00 AM 43.9129 -142.6526 114° Southeast 539 620 40,000  Level FlightAware Transoceanic
Thu 11:17:00 AM 43.8498 -142.4605 115° Southeast 539 620 40,000  Level FlightAware Transoceanic
Thu 11:18:00 AM 43.7863 -142.2688 115° Southeast 539 620 40,000  Level FlightAware Transoceanic
Thu 11:19:00 AM 43.7225 -142.0774 115° Southeast 539 620 40,000  Level FlightAware Transoceanic
Thu 11:20:00 AM 43.6584 -141.8865 115° Southeast 539 620 40,000  Level FlightAware Transoceanic
Thu 11:20:57 AM 43.6333 -141.8000 115° Southeast 522 601 40,000  Level Oakland Oceanic (ODAPS)
Thu 11:21:00 AM 43.5939 -141.6960 115° Southeast 539 620 40,000  Level FlightAware Transoceanic
Thu 11:22:00 AM 43.5292 -141.5060 115° Southeast 539 620 40,000  Level FlightAware Transoceanic
Thu 11:23:00 AM 43.4641 -141.3163 115° Southeast 539 620 40,000  Level FlightAware Transoceanic
Thu 11:24:00 AM 43.3988 -141.1270 116° Southeast 539 620 40,000  Level FlightAware Transoceanic
Thu 11:25:00 AM 43.3331 -140.9382 116° Southeast 539 620 40,000  Level FlightAware Transoceanic
Thu 11:26:00 AM 43.2671 -140.7497 116° Southeast 539 620 40,000  Level FlightAware Transoceanic
Thu 11:27:00 AM 43.2567 -140.7155 116° Southeast 522 601 40,000  Level FlightAware Transoceanic
Thu 11:28:00 AM 43.1930 -140.5361 116° Southeast 522 601 40,000  Level FlightAware Transoceanic
Thu 11:29:00 AM 43.1289 -140.3570 116° Southeast 522 601 40,000  Level FlightAware Transoceanic
Thu 11:30:00 AM 43.0646 -140.1783 116° Southeast 522 601 40,000  Level FlightAware Transoceanic
Thu 11:31:00 AM 43.0000 -140.0000 108° East 522 601 40,000  Level FlightAware Transoceanic
Thu 11:31:09 AM 43.0000 -140.0000 108° East 516 594 40,000  Level Oakland Oceanic (ODAPS)
Thu 11:32:00 AM 42.9558 -139.8199 109° East 522 601 40,000  Level FlightAware Transoceanic
Thu 11:33:00 AM 42.9114 -139.6400 109° East 522 601 40,000  Level FlightAware Transoceanic
Thu 11:34:00 AM 42.8667 -139.4603 109° East 522 601 40,000  Level FlightAware Transoceanic
Thu 11:34:49 AM 42.8333 -139.3333 109° East 509 586 40,000  Level Oakland Oceanic (ODAPS)
Thu 11:35:00 AM 42.8217 -139.2810 109° East 522 601 40,000  Level FlightAware Transoceanic
Thu 11:36:00 AM 42.7765 -139.1019 109° East 522 601 40,000  Level FlightAware Transoceanic
Thu 11:37:00 AM 42.7211 -138.8848 109° East 516 594 40,000  Level FlightAware Transoceanic
Thu 11:38:00 AM 42.6736 -138.6999 109° East 516 594 40,000  Level FlightAware Transoceanic
Thu 11:39:00 AM 42.6258 -138.5153 109° East 516 594 40,000  Level FlightAware Transoceanic
Thu 11:40:00 AM 42.5776 -138.3309 110° East 516 594 40,000  Level FlightAware Transoceanic
Thu 11:41:00 AM 42.5514 -138.2363 110° East 509 586 40,000  Level FlightAware Transoceanic
Thu 11:42:00 AM 42.5034 -138.0544 110° East 509 586 40,000  Level FlightAware Transoceanic
Thu 11:43:00 AM 42.4551 -137.8728 110° East 509 586 40,000  Level FlightAware Transoceanic
Thu 11:44:00 AM 42.4065 -137.6915 110° East 509 586 40,000  Level FlightAware Transoceanic
Thu 11:45:00 AM 42.3576 -137.5105 110° East 509 586 40,000  Level FlightAware Transoceanic
Thu 11:46:00 AM 42.3085 -137.3297 110° East 509 586 40,000  Level FlightAware Transoceanic
Thu 11:47:00 AM 42.2591 -137.1492 110° East 509 586 40,000  Level FlightAware Transoceanic
Thu 11:48:00 AM 42.2093 -136.9691 110° East 509 586 40,000 561 Level FlightAware Transoceanic
Thu 11:48:47 AM 42.1667 -136.8333 111° Southeast 509 586 41,000  Climbing Oakland Oceanic (ODAPS)
Thu 11:49:00 AM 42.1594 -136.7892 111° Southeast 509 586 40,000 -822 Descending FlightAware Transoceanic
Thu 11:50:00 AM 42.1091 -136.6095 111° Southeast 509 586 40,000  Level FlightAware Transoceanic
Thu 11:51:00 AM 42.0585 -136.4302 111° Southeast 509 586 40,000  Level FlightAware Transoceanic
Thu 11:52:00 AM 42.0077 -136.2512 111° Southeast 509 586 40,000  Level FlightAware Transoceanic
Thu 11:53:00 AM 41.9566 -136.0724 111° Southeast 509 586 40,000  Level FlightAware Transoceanic
Thu 11:54:00 AM 41.9052 -135.8939 111° Southeast 509 586 40,000 500 Level FlightAware Transoceanic
Thu 11:55:00 AM 41.8171 -135.6051 111° Southeast 509 586 41,000 500 Climbing FlightAware Transoceanic
Thu 11:56:00 AM 41.7661 -135.4308 111° Southeast 509 586 41,000  Level FlightAware Transoceanic
Thu 11:57:00 AM 41.7148 -135.2567 112° Southeast 509 586 41,000  Level FlightAware Transoceanic
Thu 11:58:00 AM 41.6633 -135.0829 112° Southeast 509 586 41,000  Level FlightAware Transoceanic
Thu 11:59:00 AM 41.6115 -134.9094 112° Southeast 509 586 41,000  Level FlightAware Transoceanic
Thu 12:00:00 PM 41.5595 -134.7361 112° Southeast 509 586 41,000  Level FlightAware Transoceanic
Thu 12:01:00 PM 41.5072 -134.5632 112° Southeast 509 586 41,000  Level FlightAware Transoceanic
Thu 12:02:00 PM 41.4546 -134.3905 112° Southeast 509 586 41,000  Level FlightAware Transoceanic
Thu 12:02:33 PM 41.4500 -134.3833 112° Southeast 507 583 41,000  Level Oakland Oceanic (ODAPS)
Thu 12:03:00 PM 41.4018 -134.2181 112° Southeast 509 586 41,000  Level FlightAware Transoceanic
Thu 12:04:00 PM 41.3487 -134.0459 112° Southeast 509 586 41,000  Level FlightAware Transoceanic
Thu 12:05:00 PM 41.2954 -133.8741 113° Southeast 509 586 41,000  Level FlightAware Transoceanic
Thu 12:06:00 PM 41.2418 -133.7025 113° Southeast 509 586 41,000  Level FlightAware Transoceanic
Thu 12:07:00 PM 41.1879 -133.5313 113° Southeast 509 586 41,000  Level FlightAware Transoceanic
Thu 12:08:00 PM 41.1302 -133.3549 113° Southeast 507 583 41,000  Level FlightAware Transoceanic
Thu 12:09:00 PM 41.0760 -133.1844 113° Southeast 507 583 41,000  Level FlightAware Transoceanic
Thu 12:10:00 PM 41.0216 -133.0143 113° Southeast 507 583 41,000  Level FlightAware Transoceanic
Thu 12:11:00 PM 40.9669 -132.8444 113° Southeast 507 583 41,000  Level FlightAware Transoceanic
Thu 12:12:00 PM 40.9120 -132.6748 113° Southeast 507 583 41,000  Level FlightAware Transoceanic
Thu 12:13:00 PM 40.8568 -132.5055 113° Southeast 507 583 41,000  Level FlightAware Transoceanic
Thu 12:14:00 PM 40.8014 -132.3365 113° Southeast 507 583 41,000  Level FlightAware Transoceanic
Thu 12:15:00 PM 40.7457 -132.1678 114° Southeast 507 583 41,000  Level FlightAware Transoceanic
Thu 12:16:00 PM 40.6898 -131.9993 114° Southeast 507 583 41,000  Level FlightAware Transoceanic
Thu 12:16:24 PM 40.7000 -132.0333 114° Southeast 501 577 41,000  Level Oakland Oceanic (ODAPS)
Thu 12:17:00 PM 40.6337 -131.8311 114° Southeast 507 583 41,000  Level FlightAware Transoceanic
Thu 12:18:00 PM 40.5773 -131.6633 114° Southeast 507 583 41,000  Level FlightAware Transoceanic
Thu 12:19:00 PM 40.5206 -131.4957 114° Southeast 507 583 41,000  Level FlightAware Transoceanic
Thu 12:20:00 PM 40.4637 -131.3283 114° Southeast 507 583 41,000  Level FlightAware Transoceanic
Thu 12:21:00 PM 40.4066 -131.1613 114° Southeast 507 583 41,000  Level FlightAware Transoceanic
Thu 12:22:00 PM 40.3545 -131.0114 114° Southeast 501 577 41,000  Level FlightAware Transoceanic
Thu 12:23:00 PM 40.2960 -130.8421 114° Southeast 501 577 41,000  Level FlightAware Transoceanic
Thu 12:24:00 PM 40.2373 -130.6731 115° Southeast 501 577 41,000  Level FlightAware Transoceanic
Thu 12:25:00 PM 40.1783 -130.5044 115° Southeast 501 577 41,000  Level FlightAware Transoceanic
Thu 12:26:00 PM 40.1191 -130.3360 115° Southeast 501 577 41,000  Level FlightAware Transoceanic
Thu 12:27:00 PM 40.0597 -130.1678 115° Southeast 501 577 41,000  Level FlightAware Transoceanic
Thu 12:28:00 PM 40.0000 -130.0000 122° Southeast 501 577 41,000  Level FlightAware Transoceanic
Thu 12:28:44 PM 40.0000 -130.0000 122° Southeast 490 564 41,000  Level Oakland Oceanic (ODAPS)
Thu 12:29:00 PM 39.9288 -129.8542 123° Southeast 501 577 41,000  Level FlightAware Transoceanic
Thu 12:30:00 PM 39.8573 -129.7086 123° Southeast 501 577 41,000  Level FlightAware Transoceanic
Thu 12:30:17 PM 39.8833 -129.7667 123° Southeast 490 564 41,000  Level Oakland Oceanic (ODAPS)
Thu 12:31:00 PM 39.7857 -129.5634 123° Southeast 501 577 41,000  Level FlightAware Transoceanic
Thu 12:32:00 PM 39.7139 -129.4184 123° Southeast 501 577 41,000  Level FlightAware Transoceanic
Thu 12:33:00 PM 39.6420 -129.2738 123° Southeast 501 577 41,000  Level FlightAware Transoceanic
Thu 12:34:00 PM 39.5698 -129.1294 123° Southeast 501 577 41,000  Level FlightAware Transoceanic
Thu 12:35:00 PM 39.5481 -129.0862 123° Southeast 490 564 41,000  Level FlightAware Transoceanic
Thu 12:36:00 PM 39.4431 -128.8809 123° Southeast 490 564 41,000  Level FlightAware Transoceanic
Thu 12:37:00 PM 39.3690 -128.7344 123° Southeast 490 564 41,000  Level FlightAware Transoceanic
Thu 12:38:00 PM 39.2948 -128.5882 123° Southeast 490 564 41,000  Level FlightAware Transoceanic
Thu 12:39:00 PM 39.2204 -128.4422 123° Southeast 490 564 41,000  Level FlightAware Transoceanic
Thu 12:40:00 PM 39.1459 -128.2966 124° Southeast 490 564 41,000  Level FlightAware Transoceanic
Thu 12:41:00 PM 39.0711 -128.1513 124° Southeast 490 564 41,000  Level FlightAware Transoceanic
Thu 12:42:00 PM 38.9962 -128.0063 124° Southeast 490 564 41,000  Level FlightAware Transoceanic
Thu 12:43:00 PM 38.9211 -127.8617 124° Southeast 490 564 41,000  Level FlightAware Transoceanic
Thu 12:44:00 PM 38.8458 -127.7173 124° Southeast 490 564 41,000  Level FlightAware Transoceanic
Thu 12:44:05 PM 38.8500 -127.7167 124° Southeast 490 564 41,000  Level Oakland Oceanic (ODAPS)
Thu 12:45:00 PM 38.7703 -127.5732 124° Southeast 490 564 41,000  Level FlightAware Transoceanic
Thu 12:46:00 PM 38.6947 -127.4295 124° Southeast 490 564 41,000  Level FlightAware Transoceanic
Thu 12:47:00 PM 38.6188 -127.2860 124° Southeast 490 564 41,000  Level FlightAware Transoceanic
Thu 12:48:00 PM 38.5428 -127.1429 124° Southeast 490 564 41,000  Level FlightAware Transoceanic
Thu 12:49:00 PM 38.4667 -127.0000 111° Southeast 490 564 41,000  Level FlightAware Transoceanic
Thu 12:50:00 PM 38.4158 -126.8324 111° Southeast 490 564 41,000  Level FlightAware Transoceanic
Thu 12:51:00 PM 38.3646 -126.6650 111° Southeast 490 564 41,000  Level FlightAware Transoceanic
Thu 12:51:15 PM 38.3470 -126.6430 111° Southeast 495 570 41,000  Level FlightAware ADS-B
Thu 12:51:44 PM 38.3210 -126.5720 115° Southeast 495 570 41,000  Level FlightAware ADS-B
Thu 12:52:34 PM 38.2810 -126.4580 114° Southeast 495 570 41,000  Level FlightAware ADS-B
Thu 12:53:23 PM 38.2290 -126.3180 115° Southeast 497 572 41,000  Level FlightAware ADS-B
Thu 12:53:44 PM 38.2040 -126.2520 116° Southeast 496 571 41,000  Level FlightAware ADS-B
Thu 12:54:23 PM 38.1660 -126.1480 115° Southeast 495 570 41,000  Level FlightAware ADS-B
Thu 12:54:59 PM 38.1300 -126.0520 115° Southeast 494 568 41,000  Level FlightAware ADS-B
Thu 12:55:33 PM 38.0980 -125.9650 115° Southeast 494 568 41,000  Level FlightAware ADS-B
Thu 12:56:09 PM 38.0630 -125.8720 116° Southeast 495 570 41,000  Level FlightAware ADS-B
Thu 12:56:45 PM 38.0260 -125.7740 116° Southeast 499 574 41,000  Level FlightAware ADS-B
Thu 12:57:17 PM 37.9950 -125.6910 115° Southeast 501 577 41,000  Level FlightAware ADS-B
Thu 12:57:52 PM 37.9610 -125.5990 115° Southeast 501 577 41,000  Level FlightAware ADS-B
Thu 12:58:29 PM 37.9240 -125.5010 116° Southeast 502 578 41,000  Level FlightAware ADS-B
Thu 12:59:03 PM 37.8900 -125.4110 116° Southeast 503 579 41,000  Level FlightAware ADS-B
Thu 12:59:40 PM 37.8530 -125.3120 115° Southeast 503 579 41,000  Level FlightAware ADS-B
Thu 01:00:12 PM 37.8200 -125.2270 116° Southeast 503 579 41,000  Level FlightAware ADS-B
Thu 01:00:50 PM 37.7820 -125.1270 116° Southeast 505 581 41,000  Level FlightAware ADS-B
Thu 01:01:27 PM 37.7460 -125.0320 116° Southeast 506 582 41,000  Level FlightAware ADS-B
Thu 01:01:54 PM 37.7170 -124.9560 116° Southeast 507 583 41,000  Level FlightAware ADS-B
Thu 01:02:36 PM 37.6740 -124.8450 116° Southeast 508 585 41,000  Level FlightAware ADS-B
Thu 01:03:08 PM 37.6400 -124.7580 116° Southeast 507 583 41,000  Level FlightAware ADS-B
Thu 01:03:44 PM 37.6050 -124.6660 116° Southeast 507 583 41,000  Level FlightAware ADS-B
Thu 01:04:20 PM 37.5680 -124.5710 116° Southeast 506 582 41,000  Level FlightAware ADS-B
Thu 01:04:50 PM 37.5350 -124.4880 117° Southeast 503 579 41,000  Level FlightAware ADS-B
Thu 01:05:30 PM 37.4940 -124.3830 116° Southeast 501 577 41,000  Level FlightAware ADS-B
Thu 01:06:04 PM 37.4600 -124.2960 116° Southeast 500 575 41,000  Level FlightAware ADS-B
Thu 01:06:40 PM 37.4240 -124.2040 116° Southeast 500 575 41,000  Level FlightAware ADS-B
Thu 01:07:14 PM 37.3890 -124.1140 116° Southeast 502 578 41,000  Level FlightAware ADS-B
Thu 01:07:52 PM 37.3500 -124.0170 117° Southeast 503 579 41,000  Level FlightAware ADS-B
Thu 01:08:23 PM 37.3180 -123.9340 116° Southeast 503 579 41,000  Level FlightAware ADS-B
Thu 01:09:00 PM 37.2790 -123.8380 117° Southeast 500 575 41,000  Level FlightAware ADS-B
Thu 01:09:36 PM 37.2410 -123.7430 117° Southeast 501 577 41,000  Level FlightAware ADS-B
Thu 01:10:10 PM 37.2070 -123.6560 116° Southeast 499 574 41,000  Level FlightAware ADS-B
Thu 01:10:46 PM 37.1690 -123.5620 117° Southeast 499 574 41,000  Level FlightAware ADS-B
Thu 01:11:18 PM 37.1360 -123.4790 116° Southeast 499 574 41,000  Level FlightAware ADS-B
Thu 01:11:48 PM 37.1070 -123.4080 117° Southeast 499 574 41,000  Level FlightAware ADS-B
Thu 01:12:30 PM 37.0610 -123.2940 117° Southeast 498 573 41,000  Level FlightAware ADS-B
Thu 01:13:05 PM 37.0260 -123.2070 117° Southeast 497 572 41,000  Level FlightAware ADS-B
Thu 01:13:38 PM 36.9900 -123.1200 117° Southeast 494 568 41,000  Level FlightAware ADS-B
Thu 01:14:08 PM 36.9590 -123.0430 117° Southeast 495 570 41,000  Level FlightAware ADS-B
Thu 01:14:50 PM 36.9160 -122.9370 117° Southeast 495 570 41,000  Level FlightAware ADS-B
Thu 01:15:24 PM 36.8800 -122.8500 117° Southeast 498 573 41,000  Level FlightAware ADS-B
Thu 01:16:02 PM 36.8400 -122.7530 117° Southeast 497 572 41,000  Level FlightAware ADS-B
Thu 01:16:34 PM 36.8060 -122.6720 118° Southeast 497 572 41,000  Level FlightAware ADS-B
Thu 01:17:08 PM 36.7710 -122.5860 117° Southeast 499 574 41,000  Level FlightAware ADS-B
Thu 01:17:36 PM 36.7410 -122.5140 117° Southeast 499 574 41,000  Level FlightAware ADS-B
Thu 01:18:12 PM 36.7040 -122.4240 117° Southeast 499 574 41,000  Level FlightAware ADS-B
Thu 01:18:48 PM 36.6650 -122.3310 118° Southeast 497 572 41,000  Level FlightAware ADS-B
Thu 01:19:24 PM 36.6260 -122.2380 118° Southeast 496 571 41,000  Level FlightAware ADS-B
Thu 01:19:41 PM 36.6076 -122.1940 118° Southeast 496 571 41,000  Level FlightAware ADS-B
Thu 01:20:32 PM 36.5560 -122.0710 118° Southeast 496 571 41,000  Level FlightAware ADS-B
Thu 01:21:08 PM 36.5170 -121.9780 118° Southeast 495 570 41,000  Level FlightAware ADS-B
Thu 01:21:40 PM 36.4820 -121.8970 118° Southeast 493 567 41,000  Level FlightAware ADS-B
Thu 01:22:14 PM 36.4460 -121.8100 117° Southeast 491 565 41,000  Level FlightAware ADS-B
Thu 01:22:52 PM 36.4060 -121.7170 118° Southeast 492 566 41,000  Level FlightAware ADS-B
Thu 01:23:28 PM 36.3700 -121.6310 117° Southeast 491 565 41,000  Level FlightAware ADS-B
Thu 01:24:04 PM 36.3320 -121.5420 118° Southeast 492 566 41,000  Level FlightAware ADS-B
Thu 01:24:40 PM 36.2930 -121.4510 118° Southeast 492 566 41,000  Level FlightAware ADS-B
Thu 01:25:12 PM 36.2600 -121.3740 118° Southeast 490 564 41,000  Level FlightAware ADS-B
Thu 01:25:46 PM 36.2240 -121.2910 118° Southeast 488 562 41,000  Level FlightAware ADS-B
Thu 01:26:07 PM 36.1980 -121.2310 118° Southeast 488 562 41,000  Level FlightAware ADS-B
Thu 01:26:39 PM 36.1640 -121.1520 118° Southeast 489 563 41,000  Level FlightAware ADS-B
Thu 01:27:25 PM 36.1149 -121.0390 118° Southeast 490 564 41,000  Level FlightAware ADS-B
Thu 01:28:06 PM 36.0730 -120.9430 118° Southeast 490 564 41,000 -390 Level FlightAware ADS-B
Thu 01:28:42 PM 36.0350 -120.8560 118° Southeast 489 563 40,500 -844 Descending FlightAware ADS-B
Thu 01:29:10 PM 36.0060 -120.7880 118° Southeast 485 558 40,100 -930 Descending FlightAware ADS-B
Thu 01:29:53 PM 35.9590 -120.6810 118° Southeast 478 550 39,400 -947 Descending FlightAware ADS-B
Thu 01:30:26 PM 35.9230 -120.6000 119° Southeast 474 545 38,900 -870 Descending FlightAware ADS-B
Thu 01:31:02 PM 35.8870 -120.5180 118° Southeast 469 540 38,400 -761 Descending FlightAware ADS-B
Thu 01:31:37 PM 35.8510 -120.4380 119° Southeast 465 535 38,000 -333 Descending FlightAware ADS-B
Thu 01:32:14 PM 35.8130 -120.3520 119° Southeast 463 533 38,000  Level FlightAware ADS-B
Thu 01:32:54 PM 35.7710 -120.2560 118° Southeast 464 534 38,000 -740 Level FlightAware ADS-B
Thu 01:33:27 PM 35.7380 -120.1840 119° Southeast 467 537 37,100 -882 Descending FlightAware ADS-B
Thu 01:34:02 PM 35.7010 -120.1000 118° Southeast 451 519 37,000 -82 Descending FlightAware ADS-B
Thu 01:34:40 PM 35.6640 -120.0170 119° Southeast 427 491 37,000  Level FlightAware ADS-B
Thu 01:35:16 PM 35.6170 -119.9530 132° Southeast 409 471 37,000 -667 Level FlightAware ADS-B
Thu 01:36:01 PM 35.5540 -119.8980 145° Southeast 393 452 36,100 -1,200 Descending FlightAware ADS-B
Thu 01:36:36 PM 35.5040 -119.8550 145° Southeast 395 455 35,400 -1,268 Descending FlightAware ADS-B
Thu 01:37:12 PM 35.4490 -119.8070 145° Southeast 390 449 34,600 -1,360 Descending FlightAware ADS-B
Thu 01:37:51 PM 35.3870 -119.7540 145° Southeast 385 443 33,700 -2,314 Descending FlightAware ADS-B
Thu 01:38:22 PM 35.3380 -119.7120 145° Southeast 411 473 31,900 -3,563 Descending FlightAware ADS-B
Thu 01:38:55 PM 35.2870 -119.6680 145° Southeast 436 502 29,900 -2,735 Descending FlightAware ADS-B
Thu 01:39:30 PM 35.2290 -119.6180 145° Southeast 433 498 28,800 -1,644 Descending FlightAware ADS-B
Thu 01:40:08 PM 35.1670 -119.5660 146° Southeast 423 487 27,900 -1,500 Descending FlightAware ADS-B
Thu 01:40:46 PM 35.1060 -119.5130 145° Southeast 412 474 26,900 -1,457 Descending FlightAware ADS-B
Thu 01:41:18 PM 35.0600 -119.4740 145° Southeast 399 459 26,200 -1,343 Descending FlightAware ADS-B
Thu 01:41:53 PM 35.0050 -119.4270 145° Southeast 398 458 25,400 -1,360 Descending FlightAware ADS-B
Thu 01:42:33 PM 34.9500 -119.3800 145° Southeast 390 449 24,500 -1,341 Descending FlightAware ADS-B
Thu 01:43:18 PM 34.8820 -119.3230 145° Southeast 374 430 23,500 -1,350 Descending FlightAware ADS-B
Thu 01:43:53 PM 34.8280 -119.2770 145° Southeast 375 432 22,700 -1,360 Descending FlightAware ADS-B
Thu 01:44:33 PM 34.7730 -119.2300 145° Southeast 369 425 21,800 -1,360 Descending FlightAware ADS-B
Thu 01:45:08 PM 34.7240 -119.1900 146° Southeast 358 412 21,000 -1,371 Descending FlightAware ADS-B
Thu 01:45:43 PM 34.6740 -119.1480 145° Southeast 353 406 20,200 -1,325 Descending FlightAware ADS-B
Thu 01:46:25 PM 34.6180 -119.1000 145° Southeast 352 405 19,300 -1,247 Descending FlightAware ADS-B
Thu 01:47:00 PM 34.5740 -119.0630 145° Southeast 348 400 18,600 -1,268 Descending FlightAware ADS-B
Thu 01:47:36 PM 34.5250 -119.0220 145° Southeast 336 387 17,800 -1,286 Descending FlightAware ADS-B
Thu 01:48:10 PM 34.4820 -118.9860 145° Southeast 338 389 17,100 -1,391 Descending FlightAware ADS-B
Thu 01:48:45 PM 34.4310 -118.9430 145° Southeast 380 437 16,200 -1,521 Descending FlightAware ADS-B
Thu 01:49:21 PM 34.3790 -118.9000 146° Southeast 373 429 15,300 -1,437 Descending FlightAware ADS-B
Thu 01:49:56 PM 34.3260 -118.8700 155° Southeast 352 405 14,500 -1,440 Descending FlightAware ADS-B
Thu 01:50:36 PM 34.2620 -118.8460 163° South 337 388 13,500 -1,440 Descending FlightAware ADS-B
Thu 01:51:11 PM 34.2080 -118.8270 164° South 334 384 12,700 -1,371 Descending FlightAware ADS-B
Thu 01:51:46 PM 34.1580 -118.8080 163° South 324 373 11,900 -1,114 Descending FlightAware ADS-B
Thu 01:52:21 PM 34.1100 -118.7900 163° South 306 352 11,400 -845 Descending FlightAware ADS-B
Thu 01:52:57 PM 34.0620 -118.7720 163° South 285 328 10,900 -706 Descending FlightAware ADS-B
Thu 01:53:12 PM 34.0470 -118.7560 139° Southeast 290 334 10,800 -600 Descending FlightAware ADS-B
Thu 01:53:27 PM 34.0370 -118.7340 119° Southeast 293 337 10,600 -800 Descending FlightAware ADS-B
Thu 01:53:57 PM 34.0310 -118.6850 98° East 296 341 10,200 -964 Descending FlightAware ADS-B
Thu 01:54:23 PM 34.0280 -118.6450 95° East 294 338 9,700 -1,277 Descending FlightAware ADS-B
Thu 01:54:44 PM 34.0250 -118.6080 96° East 292 336 9,200 -1,333 Descending FlightAware ADS-B
Thu 01:54:59 PM 34.0220 -118.5840 99° East 290 334 8,900 -1,050 Descending FlightAware ADS-B
Thu 01:55:24 PM 34.0190 -118.5450 95° East 288 331 8,500 -1,200 Descending FlightAware ADS-B
Thu 01:55:44 PM 34.0150 -118.5120 98° East 287 330 8,000 -1,350 Descending FlightAware ADS-B
Thu 01:56:04 PM 34.0130 -118.4810 94° East 285 328 7,600 -1,029 Descending FlightAware ADS-B
Thu 01:56:19 PM 34.0110 -118.4600 97° East 286 329 7,400 -1,149 Descending FlightAware ADS-B
Thu 01:56:51 PM 34.0150 -118.4060 85° East 287 330 6,700 -1,245 Descending FlightAware ADS-B
Thu 01:57:12 PM 34.0190 -118.3770 81° East 285 328 6,300 -1,050 Descending FlightAware ADS-B
Thu 01:57:31 PM 34.0230 -118.3440 82° East 279 321 6,000 -977 Descending FlightAware ADS-B
Thu 01:57:55 PM 34.0260 -118.3250 79° East 274 315 5,600 -1,000 Descending FlightAware ADS-B
Thu 01:58:19 PM 34.0320 -118.2700 82° East 268 308 5,200 -818 Descending FlightAware ADS-B
Thu 01:58:39 PM 34.0360 -118.2400 81° East 261 300 5,000 -333 Descending FlightAware ADS-B
Thu 01:58:55 PM 34.0380 -118.2190 83° East 243 280 5,000  Level FlightAware ADS-B
Thu 01:59:15 PM 34.0320 -118.1960 107° East 221 254 5,000 -200 Level FlightAware ADS-B
Thu 01:59:25 PM 34.0270 -118.1900 135° Southeast 212 244 4,900 -300 Descending FlightAware ADS-B
Thu 01:59:35 PM 34.0160 -118.1850 159° South 210 242 4,900 -333 Level FlightAware ADS-B
Thu 01:59:43 PM 34.0120 -118.1840 168° South 210 242 4,800 -800 Descending FlightAware ADS-B
Thu 01:59:50 PM 34.0010 -118.1830 176° South 210 242 4,700 -667 Descending FlightAware ADS-B
Thu 02:00:10 PM 33.9840 -118.1910 201° Southwest 210 242 4,500 -720 Descending FlightAware ADS-B
Thu 02:00:15 PM 33.9810 -118.1940 220° Southwest 209 241 4,400 -600 Descending FlightAware ADS-B
Thu 02:00:30 PM 33.9730 -118.2080 235° Southwest 204 235 4,300 -857 Descending FlightAware ADS-B
Thu 02:00:50 PM 33.9610 -118.2280 234° Southwest 195 224 3,900 -1,463 Descending FlightAware ADS-B
Thu 02:01:11 PM 33.9520 -118.2480 242° Southwest 193 222 3,300 -2,049 Descending FlightAware ADS-B
Thu 02:01:31 PM 33.9490 -118.2680 260° West 192 221 2,500 -1,610 Descending FlightAware ADS-B
Thu 02:01:52 PM 33.9470 -118.2910 264° West 161 185 2,200 -1,024 Descending FlightAware ADS-B
Thu 02:02:12 PM 33.9450 -118.3080 262° West 156 180 1,800 -1,200 Descending FlightAware ADS-B
Thu 02:02:32 PM 33.9430 -118.3250 262° West 148 170 1,400 -1,350 Descending FlightAware ADS-B
Thu 02:02:52 PM 33.9420 -118.3420 266° West 149 171 900 -1,200 Descending FlightAware ADS-B
Thu 02:03:17 PM 33.9400 -118.3610 263° West 144 166 500 -955 Descending FlightAware ADS-B
Thu 02:03:36 PM 33.9380 -118.3770 261° West 138 159 200 -774 Descending FlightAware ADS-B
Thu 02:03:48 PM 33.9370 -118.3850 261° West 137 158 100 -154 Descending FlightAware ADS-B
Thu 02:04:15 PM 33.9350 -118.4020 262° West 137 158 100  Level FlightAware ADS-B

Login

Don't have an account? Register now (free) for customized features, flight alerts, and more!